Aeroporto :
LOGIN :

Iscrizione | Disclaimer

   EN    FR    IT 

 










Sommario :    VFR   VFR Marginale   IFR   IFR Intensivo   IFR Molto Intensivo
Visibilità : 
Base nubi : 
>= 8 km
>= 3000ft
5 / 8 km
1000 / 3000 ft
1500m / 5 km
500 / 1000 ft
800 / 1500m
200 / 500 ft
< 800m
< 200 ft
Simboli :   Temporali  Nebbia  Neve Forte  Precipitazioni Forti  Vento > 20 kt
SIGMETs :   Varie  Temporali  Ghiacco  Turbolenza  Onda orograficha  Ceneri Vulcaniche






- Altitudine del aeroporto : 162 ft
- Codice IATA : BOD


LFBD - Bordeaux / Merignac

ULTIMO METAR :
  • 231900Z AUTO 26012KT 9999 SCT042/// BKN064/// BKN082/// ///CB 06/04 Q1001

METARs OBSOLETI :
  • 231830Z AUTO 22007KT 9999 FEW039/// BKN180/// OVC210/// ///TCU 05/04 Q1001
  • 231800Z AUTO 22007KT 200V260 9999 FEW023/// BKN100/// BKN170/// ///CB 05/03 Q1001
  • 231730Z AUTO 30015G32KT 270V340 5000 -TSSNRA BR SCT020/// BKN034/// BKN044/// ///CB 05/03 Q1000
  • 231700Z AUTO 23014KT 9999 FEW028/// SCT049/// BKN190/// ///CB 07/05 Q1000
  • 231630Z AUTO 23013KT 9999 -RA FEW017/// SCT029/// BKN048/// ///CB 07/05 Q1000
  • 231600Z AUTO 24009KT 9999 RA FEW030/// SCT058/// BKN082/// ///CB 07/06 Q1001
  • 231530Z AUTO 26009KT 9999 FEW017/// SCT034/// BKN045/// ///CB 07/06 Q1001
  • 231500Z AUTO 23010KT 9999 -RA FEW021/// BKN030/// BKN037/// ///CB 07/05 Q1001
  • 231430Z AUTO 22014KT 9999 RA SCT029/// SCT041/// BKN054/// ///CB 07/05 Q1001

TAF TAF LFBD
Valido dal 23 a 06 ore il 24 a 12 ore UTC


230500Z 2306/2412 21010KT 9999 BKN040 TX10/2314Z TN04/2403Z
TEMPO 2306/2321 25015G30KT 3000 SHRA FEW015CB BKN020TCU
PROB30
TEMPO 2306/2318 25025G40KT 1500 TSRAGS BKN008 BKN015CB
PROB30
TEMPO 2321/2403 4000 -SHRA BKN020TCU
ATIS : +33 5 57 92 81 04



MetMap, La meteo Aeronautica in un colpo d'occhio ! - Copyright ORBIFLY Dicembre 2007 - Disclaimer

ORBIFLY MET'MAP TEAM :

Programmazione e sviluppo : Alexandra Zaïnal
Concezione : Baudouin d'Aumeries
Supporto tecnico e logistico : Manuel Goepfert
Aiuto : Marc-Olivier Méhu
Aiuto per la traduzione : Arnaldo La Scala




FONTI E CREDITI :

   NOAA